Time;durP1;ratioP1;P1;durP2;ratioP2;P2;SDS_P1;SDS_P2;PMS_P1;PMS_P2;Temp;Humidity;BMP_temperature;BMP_pressure;BME280_temperature;BME280_humidity;BME280_pressure;Samples;Min_cycle;Max_cycle;Signal;HPM_P1;HPM_P2
2023/11/07 00:07:40;;;;;;;14.73;7.60;;;;;;;;;;6248160;23;20082;-94
2023/11/07 00:10:12;;;;;;;14.35;7.38;;;;;;;;;;6221955;23;20042;-96
2023/11/07 00:12:44;;;;;;;17.00;8.63;;;;;;;;;;6214207;23;20437;-95
2023/11/07 00:15:41;;;;;;;14.55;8.55;;;;;;;;;;6221529;23;20008;-94
2023/11/07 00:18:11;;;;;;;19.73;8.07;;;;;;;;;;6218995;23;20031;-95
2023/11/07 00:20:46;;;;;;;10.23;6.40;;;;;;;;;;6214515;23;20012;-95
2023/11/07 00:23:13;;;;;;;14.65;8.23;;;;;;;;;;6185610;23;20371;-96
2023/11/07 00:25:57;;;;;;;19.75;9.00;;;;;;;;;;6160899;23;20093;-95
2023/11/07 00:28:25;;;;;;;13.45;6.93;;;;;;;;;;6161112;23;20021;-95
2023/11/07 00:31:10;;;;;;;;;;;;;;;;;;;;;
2023/11/07 00:33:37;;;;;;;18.02;7.95;;;;;;;;;;6185434;23;20095;-95
2023/11/07 00:36:03;;;;;;;15.30;7.53;;;;;;;;;;6167103;23;20009;-96
2023/11/07 00:38:35;;;;;;;15.88;8.82;;;;;;;;;;6160589;23;20427;-95
2023/11/07 00:41:03;;;;;;;18.20;7.72;;;;;;;;;;6160539;23;20005;-95
2023/11/07 00:43:32;;;;;;;19.02;9.75;;;;;;;;;;6160415;23;20009;-95
2023/11/07 00:45:58;;;;;;;17.33;9.93;;;;;;;;;;6161028;23;20005;-95
2023/11/07 00:48:33;;;;;;;25.13;10.77;;;;;;;;;;6185929;23;20100;-96
2023/11/07 00:54:14;;;;;;;19.27;9.32;;;;;;;;;;6240233;22;20003;-94
2023/11/07 00:56:46;;;;;;;19.40;9.25;;;;;;;;;;6253314;22;20019;-96
2023/11/07 00:59:15;;;;;;;15.70;7.80;;;;;;;;;;6252268;22;20004;-95
2023/11/07 01:04:46;;;;;;;14.02;7.85;;;;;;;;;;6278885;22;20006;-96
2023/11/07 01:07:16;;;;;;;16.33;7.95;;;;;;;;;;6251876;22;20035;-96
2023/11/07 01:09:45;;;;;;;25.15;12.05;;;;;;;;;;6278568;22;20012;-95
2023/11/07 01:12:17;;;;;;;18.20;9.52;;;;;;;;;;6260302;22;20000;-95
2023/11/07 01:14:46;;;;;;;25.73;11.13;;;;;;;;;;6253380;22;20027;-96
2023/11/07 01:17:19;;;;;;;29.88;14.90;;;;;;;;;;6256348;22;19980;-96
2023/11/07 01:19:48;;;;;;;38.38;15.88;;;;;;;;;;6252782;22;20031;-96
2023/11/07 01:22:20;;;;;;;28.27;13.57;;;;;;;;;;6251668;22;20006;-96
2023/11/07 01:24:49;;;;;;;18.92;10.00;;;;;;;;;;6273319;22;19999;-95
2023/11/07 01:27:27;;;;;;;20.00;11.02;;;;;;;;;;6278136;22;20004;-96
2023/11/07 01:32:50;;;;;;;27.90;11.95;;;;;;;;;;6280860;22;20391;-96
2023/11/07 01:35:20;;;;;;;22.02;11.45;;;;;;;;;;6250848;22;20008;-96
2023/11/07 01:37:46;;;;;;;18.35;9.70;;;;;;;;;;6252356;22;20010;-95
2023/11/07 01:40:18;;;;;;;23.63;11.63;;;;;;;;;;6252699;22;20389;-94
2023/11/07 01:46:00;;;;;;;17.27;9.18;;;;;;;;;;6215137;23;20052;-96
2023/11/07 01:48:32;;;;;;;17.17;8.43;;;;;;;;;;6152873;23;20017;-95
2023/11/07 01:51:04;;;;;;;14.20;6.30;;;;;;;;;;6130748;23;20017;-96
2023/11/07 01:53:34;;;;;;;13.35;6.72;;;;;;;;;;6131304;23;20037;-96
2023/11/07 01:56:00;;;;;;;13.38;7.00;;;;;;;;;;6132058;23;20020;-96
2023/11/07 01:58:32;;;;;;;12.63;6.22;;;;;;;;;;6138268;23;20504;-96
2023/11/07 02:01:06;;;;;;;16.15;8.07;;;;;;;;;;6131003;23;20112;-96
2023/11/07 02:03:32;;;;;;;17.75;8.55;;;;;;;;;;6169150;23;20004;-95
2023/11/07 02:06:01;;;;;;;17.20;8.73;;;;;;;;;;6189215;23;20008;-95
2023/11/07 02:08:28;;;;;;;13.32;8.00;;;;;;;;;;6189287;23;20018;-95
2023/11/07 02:10:56;;;;;;;14.52;7.45;;;;;;;;;;6189846;23;20086;-94
2023/11/07 02:13:23;;;;;;;21.55;10.70;;;;;;;;;;6189505;23;20009;-94
2023/11/07 02:15:56;;;;;;;16.70;7.95;;;;;;;;;;6189761;23;20036;-94
2023/11/07 02:18:29;;;;;;;15.90;8.07;;;;;;;;;;6191002;23;20028;-95
2023/11/07 02:20:58;;;;;;;17.35;8.60;;;;;;;;;;6221961;23;20004;-95
2023/11/07 02:26:44;;;;;;;23.75;10.40;;;;;;;;;;6125636;23;20013;-95
2023/11/07 02:29:18;;;;;;;20.67;9.82;;;;;;;;;;6101070;23;20018;-96
2023/11/07 02:34:43;;;;;;;19.20;9.45;;;;;;;;;;6239197;23;20005;-94
2023/11/07 02:37:09;;;;;;;16.42;8.05;;;;;;;;;;6221851;23;20004;-95
2023/11/07 02:39:38;;;;;;;17.30;8.65;;;;;;;;;;6224653;23;20006;-95
2023/11/07 02:42:08;;;;;;;17.40;8.50;;;;;;;;;;6229036;23;20008;-96
2023/11/07 02:44:37;;;;;;;9.85;6.32;;;;;;;;;;6224395;23;20004;-94
2023/11/07 02:47:09;;;;;;;13.75;6.70;;;;;;;;;;6222402;23;20012;-96
2023/11/07 02:49:36;;;;;;;19.47;9.17;;;;;;;;;;6221345;23;20098;-96
2023/11/07 02:52:05;;;;;;;18.42;9.73;;;;;;;;;;6222141;23;20007;-96
2023/11/07 02:54:31;;;;;;;18.20;9.75;;;;;;;;;;6217972;23;20472;-94
2023/11/07 02:57:07;;;;;;;12.63;7.80;;;;;;;;;;6222081;23;20008;-94
2023/11/07 02:59:39;;;;;;;13.40;7.38;;;;;;;;;;6222344;23;20010;-95
2023/11/07 03:02:06;;;;;;;14.90;8.15;;;;;;;;;;6221886;23;20028;-95
2023/11/07 03:04:42;;;;;;;14.50;8.20;;;;;;;;;;6222479;23;20008;-95
2023/11/07 03:07:08;;;;;;;20.08;9.20;;;;;;;;;;6235731;22;20000;-94
2023/11/07 03:09:38;;;;;;;17.83;8.38;;;;;;;;;;6273880;22;20031;-95
2023/11/07 03:12:10;;;;;;;12.57;6.25;;;;;;;;;;6255502;22;20019;-94
2023/11/07 03:14:41;;;;;;;13.48;6.80;;;;;;;;;;6246475;23;20036;-95
2023/11/07 03:23:13;;;;;;;18.27;8.57;;;;;;;;;;6188219;23;20011;-93
2023/11/07 03:25:42;;;;;;;15.30;8.23;;;;;;;;;;6237528;22;20054;-94
2023/11/07 03:28:11;;;;;;;21.63;9.32;;;;;;;;;;6324939;22;20011;-95
2023/11/07 03:30:49;;;;;;;19.10;9.63;;;;;;;;;;6314754;22;20006;-94
2023/11/07 03:33:20;;;;;;;26.25;9.65;;;;;;;;;;6314088;22;20018;-94
2023/11/07 03:35:52;;;;;;;10.82;6.20;;;;;;;;;;6315079;22;20467;-96
2023/11/07 03:38:19;;;;;;;11.23;6.07;;;;;;;;;;6313564;22;20003;-95
2023/11/07 03:40:48;;;;;;;12.98;5.25;;;;;;;;;;6312679;22;20029;-94
2023/11/07 03:43:16;;;;;;;12.40;7.15;;;;;;;;;;6306824;22;20003;-94
2023/11/07 03:45:42;;;;;;;19.08;9.60;;;;;;;;;;6281152;22;20432;-95
2023/11/07 03:48:11;;;;;;;19.65;12.63;;;;;;;;;;6281267;22;20106;-94
2023/11/07 03:50:37;;;;;;;21.92;13.30;;;;;;;;;;6282892;22;20003;-93
2023/11/07 03:53:03;;;;;;;19.63;11.27;;;;;;;;;;6281577;22;20014;-94
2023/11/07 03:55:29;;;;;;;15.98;9.43;;;;;;;;;;6281912;22;20340;-94
2023/11/07 03:58:01;;;;;;;18.23;10.15;;;;;;;;;;6288607;22;20050;-94
2023/11/07 04:00:30;;;;;;;22.48;10.65;;;;;;;;;;6288370;22;20443;-95
2023/11/07 04:03:00;;;;;;;21.23;11.10;;;;;;;;;;6282744;22;20082;-95
2023/11/07 04:05:49;;;;;;;26.40;12.00;;;;;;;;;;6287456;22;20019;-95
2023/11/07 04:08:34;;;;;;;12.82;8.27;;;;;;;;;;6271706;22;20011;-94
2023/11/07 04:11:03;;;;;;;17.52;10.75;;;;;;;;;;6282552;22;20073;-96
2023/11/07 04:16:44;;;;;;;23.20;11.60;;;;;;;;;;6346923;22;20386;-96
2023/11/07 04:19:14;;;;;;;24.00;12.75;;;;;;;;;;6315139;22;20009;-95
2023/11/07 04:21:40;;;;;;;26.70;11.90;;;;;;;;;;6315439;22;20006;-96
2023/11/07 04:24:13;;;;;;;18.83;11.68;;;;;;;;;;6315377;22;20010;-96
2023/11/07 04:29:52;;;;;;;17.20;10.43;;;;;;;;;;6245259;23;20381;-94
2023/11/07 04:35:17;;;;;;;13.05;7.97;;;;;;;;;;6256347;23;20400;-96
2023/11/07 04:40:47;;;;;;;17.00;8.40;;;;;;;;;;6248938;23;20050;-95
2023/11/07 04:43:16;;;;;;;18.98;9.13;;;;;;;;;;6249855;23;20730;-95
2023/11/07 04:45:52;;;;;;;14.07;8.27;;;;;;;;;;6269332;22;20021;-95
2023/11/07 04:51:20;;;;;;;18.27;9.23;;;;;;;;;;6313967;22;20234;-95
2023/11/07 05:09:08;;;;;;;16.92;9.48;;;;;;;;;;6309471;22;20526;-95
2023/11/07 05:11:52;;;;;;;15.02;7.57;;;;;;;;;;6308932;22;20086;-96
2023/11/07 05:14:21;;;;;;;19.52;9.95;;;;;;;;;;6309310;22;20007;-94
2023/11/07 05:19:54;;;;;;;20.30;9.30;;;;;;;;;;6308798;22;20014;-93
2023/11/07 05:22:48;;;;;;;19.45;9.55;;;;;;;;;;6308777;22;20341;-96
2023/11/07 05:28:28;;;;;;;20.35;10.88;;;;;;;;;;6257801;22;20030;-94
2023/11/07 05:31:06;;;;;;;29.92;11.82;;;;;;;;;;6276562;22;20053;-94
2023/11/07 05:37:14;;;;;;;20.45;11.10;;;;;;;;;;6238405;22;20009;-94
2023/11/07 05:45:21;;;;;;;16.05;8.95;;;;;;;;;;6255410;22;20023;-94
2023/11/07 05:47:59;;;;;;;15.00;8.68;;;;;;;;;;6279718;22;20015;-95
2023/11/07 05:50:28;;;;;;;18.00;10.23;;;;;;;;;;6281878;22;19999;-96
2023/11/07 05:53:01;;;;;;;21.90;11.15;;;;;;;;;;6282580;22;20007;-95
2023/11/07 06:01:37;;;;;;;17.50;8.70;;;;;;;;;;6310415;22;20027;-96
2023/11/07 06:04:10;;;;;;;22.80;9.35;;;;;;;;;;6279522;22;20392;-96
2023/11/07 06:09:28;;;;;;;15.52;8.10;;;;;;;;;;6186603;23;19912;-95
2023/11/07 06:12:15;;;;;;;16.33;9.00;;;;;;;;;;6162860;23;20016;-96
2023/11/07 06:36:24;;;;;;;18.38;9.63;;;;;;;;;;6312419;22;20019;-95
2023/11/07 06:48:10;;;;;;;17.70;9.95;;;;;;;;;;6246660;23;20428;-95
2023/11/07 06:50:36;;;;;;;25.67;16.98;;;;;;;;;;6225944;22;20008;-95
2023/11/07 06:53:02;;;;;;;29.63;18.00;;;;;;;;;;6222381;23;20011;-95
2023/11/07 06:55:28;;;;;;;38.97;20.77;;;;;;;;;;6221055;23;20488;-95
2023/11/07 06:57:55;;;;;;;42.60;23.05;;;;;;;;;;6221769;23;20008;-94
2023/11/07 07:03:25;;;;;;;41.53;23.52;;;;;;;;;;6248054;22;20037;-95
2023/11/07 07:06:06;;;;;;;39.95;23.27;;;;;;;;;;6220741;23;20500;-94
2023/11/07 07:08:35;;;;;;;40.08;20.92;;;;;;;;;;6251355;22;20452;-95
2023/11/07 07:11:02;;;;;;;38.53;20.98;;;;;;;;;;6308879;22;20000;-95
2023/11/07 07:13:28;;;;;;;34.22;17.67;;;;;;;;;;6294726;22;20440;-96
2023/11/07 07:16:22;;;;;;;33.10;17.38;;;;;;;;;;6310156;22;20081;-96
2023/11/07 07:21:55;;;;;;;48.35;18.13;;;;;;;;;;6217847;23;20008;-96
2023/11/07 09:57:12;;;;;;;4.43;2.30;;;;;;;;;;5153888;27;20421;-95
2023/11/07 10:00:13;;;;;;;3.17;2.10;;;;;;;;;;5130205;28;20750;-95
2023/11/07 10:02:52;;;;;;;5.20;2.70;;;;;;;;;;5092847;28;20476;-95
2023/11/07 10:05:24;;;;;;;4.03;2.70;;;;;;;;;;5098842;28;20114;-95
2023/11/07 10:07:57;;;;;;;4.15;3.08;;;;;;;;;;5140177;27;20019;-95
2023/11/07 10:42:29;;;;;;;;;;;;;;;;;;;;;
2023/11/07 10:45:09;;;;;;;5.93;2.42;;;;;;;;;;6258281;23;20075;-96
2023/11/07 10:47:37;;;;;;;3.90;2.80;;;;;;;;;;6255854;23;20061;-96
2023/11/07 10:50:04;;;;;;;5.20;2.92;;;;;;;;;;6257162;23;20421;-95
2023/11/07 10:52:38;;;;;;;4.93;3.05;;;;;;;;;;6255277;23;20027;-95
2023/11/07 10:55:04;;;;;;;5.80;3.40;;;;;;;;;;6256443;23;20000;-96
2023/11/07 10:57:33;;;;;;;5.93;4.07;;;;;;;;;;6255221;23;20098;-95
2023/11/07 11:00:20;;;;;;;5.50;4.28;;;;;;;;;;6254983;23;20515;-96
2023/11/07 11:02:49;;;;;;;5.90;3.25;;;;;;;;;;6255935;23;20007;-96
2023/11/07 11:05:16;;;;;;;4.75;3.53;;;;;;;;;;6256123;23;20004;-95
2023/11/07 11:08:16;;;;;;;6.82;4.03;;;;;;;;;;6259834;23;20004;-96
2023/11/07 11:10:49;;;;;;;6.75;4.53;;;;;;;;;;6146520;23;20009;-96
2023/11/07 11:13:26;;;;;;;4.63;3.83;;;;;;;;;;6159816;23;20434;-96
2023/11/07 11:16:11;;;;;;;7.15;3.88;;;;;;;;;;6258482;23;20004;-95
2023/11/07 11:22:02;;;;;;;8.02;4.00;;;;;;;;;;6272725;22;20078;-96
2023/11/07 11:24:42;;;;;;;9.38;4.97;;;;;;;;;;6143205;23;20406;-96
2023/11/07 11:27:48;;;;;;;6.20;4.32;;;;;;;;;;6253718;23;20059;-96
2023/11/07 11:30:14;;;;;;;8.02;4.10;;;;;;;;;;6223048;22;19992;-95
2023/11/07 11:36:07;;;;;;;;;;;;;;;;;;;;;
2023/11/07 11:42:15;;;;;;;;;;;;;;;;;;;;;
2023/11/07 11:58:06;;;;;;;7.43;3.30;;;;;;;;;;6078951;23;20007;-95
2023/11/07 12:04:00;;;;;;;;;;;;;;;;;;;;;
2023/11/07 12:06:37;;;;;;;3.42;3.00;;;;;;;;;;6173535;23;20044;-95
2023/11/07 12:27:46;;;;;;;4.97;4.47;;;;;;;;;;6265498;22;20016;-95
2023/11/07 12:30:51;;;;;;;;;;;;;;;;;;;;;
2023/11/07 12:34:11;;;;;;;7.57;4.55;;;;;;;;;;6286667;22;20031;-96
2023/11/07 12:36:59;;;;;;;3.72;3.15;;;;;;;;;;6102822;23;20432;-96
2023/11/07 12:49:20;;;;;;;;;;;;;;;;;;;;;
2023/11/07 13:20:13;;;;;;;4.75;3.20;;;;;;;;;;6266019;22;20024;-93
2023/11/07 13:35:02;;;;;;;;;;;;;;;;;;;;;
2023/11/07 13:41:00;;;;;;;4.03;3.20;;;;;;;;;;6252501;23;20038;-96
2023/11/07 14:01:09;;;;;;;5.78;2.30;;;;;;;;;;6155483;23;20023;-94
2023/11/07 14:03:38;;;;;;;4.82;2.40;;;;;;;;;;6146611;22;20447;-95
2023/11/07 14:06:33;;;;;;;7.65;2.38;;;;;;;;;;6252458;22;20482;-96
2023/11/07 14:09:01;;;;;;;4.82;2.63;;;;;;;;;;6251593;22;20012;-95
2023/11/07 14:12:12;;;;;;;5.28;2.40;;;;;;;;;;6251788;22;20007;-95
2023/11/07 14:15:08;;;;;;;5.00;2.17;;;;;;;;;;6252119;22;19999;-96
2023/11/07 14:18:05;;;;;;;3.17;2.15;;;;;;;;;;6271581;22;20004;-96
2023/11/07 14:20:32;;;;;;;7.40;2.08;;;;;;;;;;6199961;22;20337;-95
2023/11/07 14:25:53;;;;;;;6.18;3.65;;;;;;;;;;6266188;22;20011;-96
2023/11/07 14:31:20;;;;;;;8.32;4.53;;;;;;;;;;6224079;22;20000;-96
2023/11/07 14:33:46;;;;;;;15.23;7.43;;;;;;;;;;6252582;22;20008;-96
2023/11/07 14:36:15;;;;;;;15.00;6.60;;;;;;;;;;6251579;22;20029;-96
2023/11/07 14:38:42;;;;;;;14.52;5.32;;;;;;;;;;6252766;22;20010;-95
2023/11/07 14:41:29;;;;;;;12.52;5.13;;;;;;;;;;6253236;22;20012;-96
2023/11/07 14:44:05;;;;;;;13.52;4.80;;;;;;;;;;6253311;22;19996;-95
2023/11/07 14:46:35;;;;;;;8.32;3.72;;;;;;;;;;6253275;22;20011;-96
2023/11/07 14:52:22;;;;;;;6.32;3.17;;;;;;;;;;6266324;22;20024;-95
2023/11/07 14:54:56;;;;;;;6.18;2.80;;;;;;;;;;6221268;22;20047;-95
2023/11/07 14:57:22;;;;;;;7.53;3.28;;;;;;;;;;6253148;22;20008;-95
2023/11/07 14:59:52;;;;;;;6.35;3.33;;;;;;;;;;6252535;22;20015;-95
2023/11/07 15:08:10;;;;;;;20.40;5.10;;;;;;;;;;6161241;23;20005;-96
2023/11/07 15:17:04;;;;;;;14.40;5.78;;;;;;;;;;6280020;22;20101;-96
2023/11/07 15:20:01;;;;;;;18.25;5.75;;;;;;;;;;6261546;22;20007;-96
2023/11/07 15:26:08;;;;;;;15.70;6.45;;;;;;;;;;6182968;22;20166;-96
2023/11/07 15:29:02;;;;;;;8.93;5.05;;;;;;;;;;6254506;22;20000;-96
2023/11/07 15:34:08;;;;;;;19.00;8.85;;;;;;;;;;6317616;22;20015;-96
2023/11/07 15:36:44;;;;;;;29.58;10.32;;;;;;;;;;6297628;22;19988;-96
2023/11/07 15:39:18;;;;;;;26.27;9.88;;;;;;;;;;6310937;22;20007;-94
2023/11/07 15:41:59;;;;;;;33.83;16.23;;;;;;;;;;6294373;22;20015;-96
2023/11/07 15:47:45;;;;;;;30.48;13.40;;;;;;;;;;6300273;22;20010;-96
2023/11/07 15:53:28;;;;;;;30.52;17.15;;;;;;;;;;6288906;22;20052;-96
2023/11/07 15:55:57;;;;;;;43.50;19.63;;;;;;;;;;6284085;22;20423;-96
2023/11/07 16:04:21;;;;;;;26.50;15.52;;;;;;;;;;6310411;22;20010;-95
2023/11/07 16:06:48;;;;;;;25.88;16.55;;;;;;;;;;6283209;22;20011;-94
2023/11/07 16:09:16;;;;;;;27.48;19.02;;;;;;;;;;6283699;22;20336;-95
2023/11/07 16:11:42;;;;;;;27.02;16.90;;;;;;;;;;6285265;22;20003;-94
2023/11/07 16:14:15;;;;;;;25.42;17.27;;;;;;;;;;6283886;22;20007;-95
2023/11/07 16:21:56;;;;;;;35.90;21.08;;;;;;;;;;6275302;22;20023;-95
2023/11/07 16:24:42;;;;;;;38.45;23.35;;;;;;;;;;6253190;22;20046;-96
2023/11/07 16:40:56;;;;;;;63.42;34.20;;;;;;;;;;6265728;22;20379;-94
2023/11/07 16:43:48;;;;;;;45.55;29.15;;;;;;;;;;6251602;23;20007;-95
2023/11/07 16:51:33;;;;;;;48.90;24.77;;;;;;;;;;6278885;22;20072;-95
2023/11/07 17:36:04;;;;;;;;;;;;;;;;;;;;;
2023/11/07 17:42:03;;;;;;;59.28;30.33;;;;;;;;;;6283413;22;20018;-95
2023/11/07 17:44:37;;;;;;;;;;;;;;;;;;;;;
2023/11/07 18:57:12;;;;;;;76.85;34.28;;;;;;;;;;6266282;22;20003;-95
2023/11/07 19:00:04;;;;;;;53.42;29.83;;;;;;;;;;6284749;22;20043;-96
2023/11/07 19:03:08;;;;;;;64.78;32.15;;;;;;;;;;6268354;22;20015;-96
2023/11/07 19:08:58;;;;;;;;;;;;;;;;;;;;;
2023/11/07 19:11:40;;;;;;;79.13;35.92;;;;;;;;;;6258742;23;20004;-96
2023/11/07 19:14:37;;;;;;;84.70;34.22;;;;;;;;;;6259376;23;20008;-94
2023/11/07 19:17:16;;;;;;;;;;;;;;;;;;;;;
2023/11/07 19:20:14;;;;;;;50.55;25.55;;;;;;;;;;6177126;22;20033;-94
2023/11/07 19:28:47;;;;;;;37.85;22.58;;;;;;;;;;6090877;23;20134;-94
2023/11/07 19:31:16;;;;;;;69.30;30.13;;;;;;;;;;6127240;23;20006;-96
2023/11/07 19:33:57;;;;;;;40.97;24.30;;;;;;;;;;6166656;23;20005;-96
2023/11/07 19:37:13;;;;;;;;;;;;;;;;;;;;;
2023/11/07 19:46:23;;;;;;;43.97;24.70;;;;;;;;;;6074648;23;20030;-96
2023/11/07 19:49:05;;;;;;;110.65;35.17;;;;;;;;;;6164146;23;20061;-96
2023/11/07 20:01:01;;;;;;;61.60;29.63;;;;;;;;;;6109299;23;20050;-96
2023/11/07 20:07:04;;;;;;;;;;;;;;;;;;;;;
2023/11/07 20:18:54;;;;;;;;;;;;;;;;;;;;;
2023/11/07 20:21:33;;;;;;;47.40;26.67;;;;;;;;;;6142876;23;20022;-96
2023/11/07 20:29:42;;;;;;;41.60;24.63;;;;;;;;;;6255523;23;20011;-96
2023/11/07 20:35:12;;;;;;;33.65;22.95;;;;;;;;;;6287708;22;20089;-96
2023/11/07 20:43:37;;;;;;;29.85;20.75;;;;;;;;;;6258644;22;20012;-95
2023/11/07 20:46:07;;;;;;;46.40;26.52;;;;;;;;;;6246111;22;20000;-94
2023/11/07 20:48:37;;;;;;;37.50;25.23;;;;;;;;;;6258694;22;20008;-95
2023/11/07 20:51:05;;;;;;;50.22;29.85;;;;;;;;;;6275908;22;20020;-94
2023/11/07 20:56:07;;;;;;;43.45;25.77;;;;;;;;;;6274289;22;20103;-95
2023/11/07 20:58:43;;;;;;;79.28;33.05;;;;;;;;;;6238018;22;20039;-94
2023/11/07 21:06:26;;;;;;;78.05;34.08;;;;;;;;;;6263230;22;20024;-96
2023/11/07 21:08:55;;;;;;;67.13;33.40;;;;;;;;;;6244451;22;20032;-95
2023/11/07 21:14:04;;;;;;;71.35;34.58;;;;;;;;;;6281689;22;20024;-95
2023/11/07 21:16:51;;;;;;;64.30;33.30;;;;;;;;;;6289790;22;20794;-95
2023/11/07 21:19:24;;;;;;;65.78;31.65;;;;;;;;;;6289005;22;20014;-96
2023/11/07 21:21:58;;;;;;;69.93;32.78;;;;;;;;;;6249254;22;20844;-96
2023/11/07 21:24:34;;;;;;;42.53;26.30;;;;;;;;;;6248213;22;20103;-94
2023/11/07 21:27:07;;;;;;;49.90;30.00;;;;;;;;;;6270045;22;20071;-95
2023/11/07 21:37:28;;;;;;;55.65;30.55;;;;;;;;;;6283533;22;20051;-94
2023/11/07 21:45:10;;;;;;;17.15;10.73;;;;;;;;;;6280755;22;20031;-95
2023/11/07 21:47:41;;;;;;;17.03;10.67;;;;;;;;;;6274917;22;20023;-96
2023/11/07 21:53:04;;;;;;;11.18;6.97;;;;;;;;;;6285302;22;20089;-95
